sensor_id;sensor_type;location;lat;lon;timestamp;P1;durP1;ratioP1;P2;durP2;ratioP2
12511;SDS011;6321;53.798;10.382;2023-06-14T00:00:21;4.90;;;4.03;;
12511;SDS011;6321;53.798;10.382;2023-06-14T00:02:47;7.60;;;4.27;;
12511;SDS011;6321;53.798;10.382;2023-06-14T00:05:13;5.27;;;4.10;;
12511;SDS011;6321;53.798;10.382;2023-06-14T00:07:40;4.80;;;3.63;;
12511;SDS011;6321;53.798;10.382;2023-06-14T00:10:09;7.27;;;3.97;;
12511;SDS011;6321;53.798;10.382;2023-06-14T00:12:35;8.73;;;4.60;;
12511;SDS011;6321;53.798;10.382;2023-06-14T00:15:01;5.83;;;3.77;;
12511;SDS011;6321;53.798;10.382;2023-06-14T00:17:27;6.13;;;4.27;;
12511;SDS011;6321;53.798;10.382;2023-06-14T00:19:55;5.40;;;4.00;;
12511;SDS011;6321;53.798;10.382;2023-06-14T00:22:21;5.87;;;4.03;;
12511;SDS011;6321;53.798;10.382;2023-06-14T00:24:49;7.23;;;4.80;;
12511;SDS011;6321;53.798;10.382;2023-06-14T00:27:15;4.90;;;4.07;;
12511;SDS011;6321;53.798;10.382;2023-06-14T00:29:41;6.23;;;4.23;;
12511;SDS011;6321;53.798;10.382;2023-06-14T00:32:07;6.20;;;4.37;;
12511;SDS011;6321;53.798;10.382;2023-06-14T00:34:33;7.43;;;4.90;;
12511;SDS011;6321;53.798;10.382;2023-06-14T00:36:59;11.97;;;4.63;;
12511;SDS011;6321;53.798;10.382;2023-06-14T00:39:25;6.77;;;4.33;;
12511;SDS011;6321;53.798;10.382;2023-06-14T00:41:51;6.20;;;4.73;;
12511;SDS011;6321;53.798;10.382;2023-06-14T00:44:17;4.27;;;3.83;;
12511;SDS011;6321;53.798;10.382;2023-06-14T00:46:45;8.17;;;4.47;;
12511;SDS011;6321;53.798;10.382;2023-06-14T00:49:11;8.87;;;4.87;;
12511;SDS011;6321;53.798;10.382;2023-06-14T00:51:37;8.43;;;4.40;;
12511;SDS011;6321;53.798;10.382;2023-06-14T00:54:04;8.00;;;4.60;;
12511;SDS011;6321;53.798;10.382;2023-06-14T00:56:30;10.67;;;4.57;;
12511;SDS011;6321;53.798;10.382;2023-06-14T00:58:56;7.07;;;4.77;;
12511;SDS011;6321;53.798;10.382;2023-06-14T01:01:22;8.00;;;4.50;;
12511;SDS011;6321;53.798;10.382;2023-06-14T01:03:49;6.87;;;4.80;;
12511;SDS011;6321;53.798;10.382;2023-06-14T01:06:22;8.23;;;4.33;;
12511;SDS011;6321;53.798;10.382;2023-06-14T01:09:03;7.03;;;3.93;;
12511;SDS011;6321;53.798;10.382;2023-06-14T01:11:37;6.23;;;4.50;;
12511;SDS011;6321;53.798;10.382;2023-06-14T01:14:04;8.67;;;4.23;;
12511;SDS011;6321;53.798;10.382;2023-06-14T01:16:30;6.13;;;3.60;;
12511;SDS011;6321;53.798;10.382;2023-06-14T01:18:57;5.60;;;3.50;;
12511;SDS011;6321;53.798;10.382;2023-06-14T01:21:24;6.50;;;4.30;;
12511;SDS011;6321;53.798;10.382;2023-06-14T01:23:50;10.10;;;4.17;;
12511;SDS011;6321;53.798;10.382;2023-06-14T01:26:18;9.50;;;4.60;;
12511;SDS011;6321;53.798;10.382;2023-06-14T01:28:43;6.77;;;4.27;;
12511;SDS011;6321;53.798;10.382;2023-06-14T01:31:13;9.37;;;4.70;;
12511;SDS011;6321;53.798;10.382;2023-06-14T01:33:41;4.97;;;4.47;;
12511;SDS011;6321;53.798;10.382;2023-06-14T01:36:07;8.40;;;4.97;;
12511;SDS011;6321;53.798;10.382;2023-06-14T01:38:33;7.87;;;4.63;;
12511;SDS011;6321;53.798;10.382;2023-06-14T01:41:00;5.50;;;3.73;;
12511;SDS011;6321;53.798;10.382;2023-06-14T01:43:27;6.30;;;4.07;;
12511;SDS011;6321;53.798;10.382;2023-06-14T01:45:54;6.20;;;4.30;;
12511;SDS011;6321;53.798;10.382;2023-06-14T01:48:21;4.10;;;3.70;;
12511;SDS011;6321;53.798;10.382;2023-06-14T01:50:48;4.20;;;3.50;;
12511;SDS011;6321;53.798;10.382;2023-06-14T01:53:14;5.60;;;4.13;;
12511;SDS011;6321;53.798;10.382;2023-06-14T01:55:40;6.90;;;4.70;;
12511;SDS011;6321;53.798;10.382;2023-06-14T01:58:08;6.73;;;4.90;;
12511;SDS011;6321;53.798;10.382;2023-06-14T02:00:34;8.40;;;4.77;;
12511;SDS011;6321;53.798;10.382;2023-06-14T02:03:00;7.63;;;4.47;;
12511;SDS011;6321;53.798;10.382;2023-06-14T02:05:27;6.90;;;4.40;;
12511;SDS011;6321;53.798;10.382;2023-06-14T02:07:53;8.83;;;4.50;;
12511;SDS011;6321;53.798;10.382;2023-06-14T02:10:19;6.40;;;4.90;;
12511;SDS011;6321;53.798;10.382;2023-06-14T02:12:45;6.70;;;5.00;;
12511;SDS011;6321;53.798;10.382;2023-06-14T02:15:11;7.73;;;5.00;;
12511;SDS011;6321;53.798;10.382;2023-06-14T02:17:44;6.97;;;4.00;;
12511;SDS011;6321;53.798;10.382;2023-06-14T02:20:12;7.20;;;4.50;;
12511;SDS011;6321;53.798;10.382;2023-06-14T02:22:37;6.03;;;4.17;;
12511;SDS011;6321;53.798;10.382;2023-06-14T02:25:03;5.87;;;4.07;;
12511;SDS011;6321;53.798;10.382;2023-06-14T02:27:30;5.20;;;4.17;;
12511;SDS011;6321;53.798;10.382;2023-06-14T02:29:56;4.17;;;3.63;;
12511;SDS011;6321;53.798;10.382;2023-06-14T02:32:22;4.57;;;3.60;;
12511;SDS011;6321;53.798;10.382;2023-06-14T02:34:48;5.93;;;3.80;;
12511;SDS011;6321;53.798;10.382;2023-06-14T02:37:14;6.23;;;4.07;;
12511;SDS011;6321;53.798;10.382;2023-06-14T02:39:40;4.50;;;3.60;;
12511;SDS011;6321;53.798;10.382;2023-06-14T02:42:06;5.40;;;4.83;;
12511;SDS011;6321;53.798;10.382;2023-06-14T02:44:32;4.83;;;4.27;;
12511;SDS011;6321;53.798;10.382;2023-06-14T02:46:58;5.10;;;4.40;;
12511;SDS011;6321;53.798;10.382;2023-06-14T02:49:25;4.67;;;3.77;;
12511;SDS011;6321;53.798;10.382;2023-06-14T02:51:51;7.03;;;3.77;;
12511;SDS011;6321;53.798;10.382;2023-06-14T02:54:17;5.00;;;3.87;;
12511;SDS011;6321;53.798;10.382;2023-06-14T02:56:43;4.80;;;3.67;;
12511;SDS011;6321;53.798;10.382;2023-06-14T02:59:09;5.23;;;3.93;;
12511;SDS011;6321;53.798;10.382;2023-06-14T03:01:35;3.70;;;3.40;;
12511;SDS011;6321;53.798;10.382;2023-06-14T03:04:05;5.33;;;3.83;;
12511;SDS011;6321;53.798;10.382;2023-06-14T03:06:32;5.67;;;3.50;;
12511;SDS011;6321;53.798;10.382;2023-06-14T03:08:58;4.97;;;3.47;;
12511;SDS011;6321;53.798;10.382;2023-06-14T03:11:26;4.97;;;4.03;;
12511;SDS011;6321;53.798;10.382;2023-06-14T03:13:52;3.93;;;3.50;;
12511;SDS011;6321;53.798;10.382;2023-06-14T03:16:18;6.33;;;3.63;;
12511;SDS011;6321;53.798;10.382;2023-06-14T03:18:50;4.23;;;3.77;;
12511;SDS011;6321;53.798;10.382;2023-06-14T03:21:16;4.97;;;3.70;;
12511;SDS011;6321;53.798;10.382;2023-06-14T03:23:42;6.40;;;3.80;;
12511;SDS011;6321;53.798;10.382;2023-06-14T03:26:09;4.97;;;3.60;;
12511;SDS011;6321;53.798;10.382;2023-06-14T03:28:39;5.07;;;3.63;;
12511;SDS011;6321;53.798;10.382;2023-06-14T03:31:05;4.67;;;3.17;;
12511;SDS011;6321;53.798;10.382;2023-06-14T03:33:31;3.90;;;3.47;;
12511;SDS011;6321;53.798;10.382;2023-06-14T03:35:57;5.03;;;3.63;;
12511;SDS011;6321;53.798;10.382;2023-06-14T03:38:23;5.20;;;3.83;;
12511;SDS011;6321;53.798;10.382;2023-06-14T03:40:49;4.43;;;3.53;;
12511;SDS011;6321;53.798;10.382;2023-06-14T03:43:15;4.60;;;3.70;;
12511;SDS011;6321;53.798;10.382;2023-06-14T03:45:41;5.00;;;3.67;;
12511;SDS011;6321;53.798;10.382;2023-06-14T03:48:08;5.50;;;3.60;;
12511;SDS011;6321;53.798;10.382;2023-06-14T03:50:34;5.87;;;3.97;;
12511;SDS011;6321;53.798;10.382;2023-06-14T03:53:03;4.03;;;3.33;;
12511;SDS011;6321;53.798;10.382;2023-06-14T03:55:29;5.23;;;4.10;;
12511;SDS011;6321;53.798;10.382;2023-06-14T03:57:56;9.17;;;6.60;;
12511;SDS011;6321;53.798;10.382;2023-06-14T04:00:22;8.77;;;6.10;;
12511;SDS011;6321;53.798;10.382;2023-06-14T04:02:48;8.43;;;6.20;;
12511;SDS011;6321;53.798;10.382;2023-06-14T04:05:14;7.23;;;5.40;;
12511;SDS011;6321;53.798;10.382;2023-06-14T04:07:41;8.70;;;5.77;;
12511;SDS011;6321;53.798;10.382;2023-06-14T04:10:10;8.27;;;5.67;;
12511;SDS011;6321;53.798;10.382;2023-06-14T04:12:36;8.53;;;4.93;;
12511;SDS011;6321;53.798;10.382;2023-06-14T04:15:02;8.43;;;5.00;;
12511;SDS011;6321;53.798;10.382;2023-06-14T04:17:28;9.07;;;5.87;;
12511;SDS011;6321;53.798;10.382;2023-06-14T04:19:54;5.57;;;4.93;;
12511;SDS011;6321;53.798;10.382;2023-06-14T04:22:20;8.37;;;5.63;;
12511;SDS011;6321;53.798;10.382;2023-06-14T04:24:46;10.57;;;7.33;;
12511;SDS011;6321;53.798;10.382;2023-06-14T04:27:14;6.20;;;4.00;;
12511;SDS011;6321;53.798;10.382;2023-06-14T04:29:46;8.30;;;5.50;;
12511;SDS011;6321;53.798;10.382;2023-06-14T04:32:18;7.97;;;5.70;;
12511;SDS011;6321;53.798;10.382;2023-06-14T04:34:44;8.53;;;4.70;;
12511;SDS011;6321;53.798;10.382;2023-06-14T04:37:10;6.07;;;4.67;;
12511;SDS011;6321;53.798;10.382;2023-06-14T04:39:36;8.07;;;5.87;;
12511;SDS011;6321;53.798;10.382;2023-06-14T04:42:02;8.17;;;5.93;;
12511;SDS011;6321;53.798;10.382;2023-06-14T04:44:29;7.90;;;5.87;;
12511;SDS011;6321;53.798;10.382;2023-06-14T04:46:56;11.33;;;6.33;;
12511;SDS011;6321;53.798;10.382;2023-06-14T04:49:23;9.00;;;6.70;;
12511;SDS011;6321;53.798;10.382;2023-06-14T04:51:52;8.10;;;5.93;;
12511;SDS011;6321;53.798;10.382;2023-06-14T04:54:22;8.67;;;6.00;;
12511;SDS011;6321;53.798;10.382;2023-06-14T04:56:50;11.07;;;6.00;;
12511;SDS011;6321;53.798;10.382;2023-06-14T04:59:16;8.60;;;5.80;;
12511;SDS011;6321;53.798;10.382;2023-06-14T05:01:42;10.80;;;6.23;;
12511;SDS011;6321;53.798;10.382;2023-06-14T05:04:13;10.83;;;7.07;;
12511;SDS011;6321;53.798;10.382;2023-06-14T05:06:40;8.30;;;5.80;;
12511;SDS011;6321;53.798;10.382;2023-06-14T05:09:06;10.90;;;6.20;;
12511;SDS011;6321;53.798;10.382;2023-06-14T05:11:32;8.17;;;5.53;;
12511;SDS011;6321;53.798;10.382;2023-06-14T05:13:58;10.87;;;5.37;;
12511;SDS011;6321;53.798;10.382;2023-06-14T05:16:24;8.90;;;5.90;;
12511;SDS011;6321;53.798;10.382;2023-06-14T05:18:52;10.03;;;6.07;;
12511;SDS011;6321;53.798;10.382;2023-06-14T05:21:18;8.60;;;6.20;;
12511;SDS011;6321;53.798;10.382;2023-06-14T05:23:44;7.40;;;6.13;;
12511;SDS011;6321;53.798;10.382;2023-06-14T05:26:10;8.50;;;5.53;;
12511;SDS011;6321;53.798;10.382;2023-06-14T05:28:36;9.57;;;5.40;;
12511;SDS011;6321;53.798;10.382;2023-06-14T05:31:02;8.67;;;5.70;;
12511;SDS011;6321;53.798;10.382;2023-06-14T05:33:28;9.77;;;6.00;;
12511;SDS011;6321;53.798;10.382;2023-06-14T05:35:54;6.97;;;5.60;;
12511;SDS011;6321;53.798;10.382;2023-06-14T05:38:20;6.17;;;5.57;;
12511;SDS011;6321;53.798;10.382;2023-06-14T05:40:46;7.23;;;5.57;;
12511;SDS011;6321;53.798;10.382;2023-06-14T05:43:12;10.27;;;5.70;;
12511;SDS011;6321;53.798;10.382;2023-06-14T05:45:38;9.73;;;5.27;;
12511;SDS011;6321;53.798;10.382;2023-06-14T05:48:04;9.07;;;5.70;;
12511;SDS011;6321;53.798;10.382;2023-06-14T05:50:30;9.17;;;4.97;;
12511;SDS011;6321;53.798;10.382;2023-06-14T05:52:56;12.33;;;5.53;;
12511;SDS011;6321;53.798;10.382;2023-06-14T05:55:22;8.10;;;5.20;;
12511;SDS011;6321;53.798;10.382;2023-06-14T05:57:48;10.13;;;5.20;;
12511;SDS011;6321;53.798;10.382;2023-06-14T06:00:14;9.40;;;4.77;;
12511;SDS011;6321;53.798;10.382;2023-06-14T06:02:41;9.47;;;4.93;;
12511;SDS011;6321;53.798;10.382;2023-06-14T06:05:08;9.50;;;5.40;;
12511;SDS011;6321;53.798;10.382;2023-06-14T06:07:34;8.53;;;4.20;;
12511;SDS011;6321;53.798;10.382;2023-06-14T06:10:00;11.93;;;4.03;;
12511;SDS011;6321;53.798;10.382;2023-06-14T06:12:26;8.37;;;4.87;;
12511;SDS011;6321;53.798;10.382;2023-06-14T06:14:52;10.00;;;4.57;;
12511;SDS011;6321;53.798;10.382;2023-06-14T06:17:18;10.03;;;4.90;;
12511;SDS011;6321;53.798;10.382;2023-06-14T06:19:44;5.73;;;4.50;;
12511;SDS011;6321;53.798;10.382;2023-06-14T06:22:10;8.87;;;4.43;;
12511;SDS011;6321;53.798;10.382;2023-06-14T06:24:36;6.67;;;4.93;;
12511;SDS011;6321;53.798;10.382;2023-06-14T06:27:02;7.83;;;4.80;;
12511;SDS011;6321;53.798;10.382;2023-06-14T06:29:28;6.47;;;4.17;;
12511;SDS011;6321;53.798;10.382;2023-06-14T06:31:54;9.67;;;4.77;;
12511;SDS011;6321;53.798;10.382;2023-06-14T06:34:21;8.70;;;4.73;;
12511;SDS011;6321;53.798;10.382;2023-06-14T06:36:47;5.13;;;4.00;;
12511;SDS011;6321;53.798;10.382;2023-06-14T06:39:13;5.63;;;4.00;;
12511;SDS011;6321;53.798;10.382;2023-06-14T06:41:40;8.87;;;3.80;;
12511;SDS011;6321;53.798;10.382;2023-06-14T06:44:06;6.33;;;3.73;;
12511;SDS011;6321;53.798;10.382;2023-06-14T06:46:33;5.63;;;4.03;;
12511;SDS011;6321;53.798;10.382;2023-06-14T06:48:59;9.47;;;4.30;;
12511;SDS011;6321;53.798;10.382;2023-06-14T06:51:25;8.50;;;3.90;;
12511;SDS011;6321;53.798;10.382;2023-06-14T06:53:52;5.37;;;4.23;;
12511;SDS011;6321;53.798;10.382;2023-06-14T06:56:18;10.03;;;3.70;;
12511;SDS011;6321;53.798;10.382;2023-06-14T06:58:45;5.70;;;4.03;;
12511;SDS011;6321;53.798;10.382;2023-06-14T07:01:11;6.80;;;4.03;;
12511;SDS011;6321;53.798;10.382;2023-06-14T07:03:38;5.53;;;4.20;;
12511;SDS011;6321;53.798;10.382;2023-06-14T07:06:04;4.20;;;3.50;;
12511;SDS011;6321;53.798;10.382;2023-06-14T07:08:30;3.93;;;3.53;;
12511;SDS011;6321;53.798;10.382;2023-06-14T07:10:56;5.50;;;3.70;;
12511;SDS011;6321;53.798;10.382;2023-06-14T07:13:22;4.10;;;3.33;;
12511;SDS011;6321;53.798;10.382;2023-06-14T07:15:47;7.00;;;3.30;;
12511;SDS011;6321;53.798;10.382;2023-06-14T07:18:13;5.00;;;3.87;;
12511;SDS011;6321;53.798;10.382;2023-06-14T07:20:40;4.43;;;4.03;;
12511;SDS011;6321;53.798;10.382;2023-06-14T07:23:06;5.83;;;3.50;;
12511;SDS011;6321;53.798;10.382;2023-06-14T07:25:32;5.73;;;3.60;;
12511;SDS011;6321;53.798;10.382;2023-06-14T07:27:58;5.17;;;3.80;;
12511;SDS011;6321;53.798;10.382;2023-06-14T07:30:24;4.67;;;3.43;;
12511;SDS011;6321;53.798;10.382;2023-06-14T07:32:52;4.80;;;3.27;;
12511;SDS011;6321;53.798;10.382;2023-06-14T07:35:18;4.40;;;3.47;;
12511;SDS011;6321;53.798;10.382;2023-06-14T07:37:44;4.63;;;3.17;;
12511;SDS011;6321;53.798;10.382;2023-06-14T07:40:12;5.27;;;3.37;;
12511;SDS011;6321;53.798;10.382;2023-06-14T07:42:38;5.93;;;3.43;;
12511;SDS011;6321;53.798;10.382;2023-06-14T07:45:04;4.03;;;3.17;;
12511;SDS011;6321;53.798;10.382;2023-06-14T07:47:30;4.30;;;3.50;;
12511;SDS011;6321;53.798;10.382;2023-06-14T07:49:56;6.47;;;3.80;;
12511;SDS011;6321;53.798;10.382;2023-06-14T07:52:22;5.77;;;3.20;;
12511;SDS011;6321;53.798;10.382;2023-06-14T07:54:48;5.30;;;3.40;;
12511;SDS011;6321;53.798;10.382;2023-06-14T07:57:14;3.60;;;3.30;;
12511;SDS011;6321;53.798;10.382;2023-06-14T07:59:40;5.30;;;3.17;;
12511;SDS011;6321;53.798;10.382;2023-06-14T08:02:06;3.80;;;3.47;;
12511;SDS011;6321;53.798;10.382;2023-06-14T08:04:32;3.73;;;2.90;;
12511;SDS011;6321;53.798;10.382;2023-06-14T08:06:59;9.07;;;3.20;;
12511;SDS011;6321;53.798;10.382;2023-06-14T08:09:25;6.33;;;3.67;;
12511;SDS011;6321;53.798;10.382;2023-06-14T08:11:53;3.97;;;3.43;;
12511;SDS011;6321;53.798;10.382;2023-06-14T08:14:19;4.30;;;3.50;;
12511;SDS011;6321;53.798;10.382;2023-06-14T08:16:45;5.07;;;3.37;;
12511;SDS011;6321;53.798;10.382;2023-06-14T08:19:11;7.03;;;3.47;;
12511;SDS011;6321;53.798;10.382;2023-06-14T08:21:37;4.70;;;3.63;;
12511;SDS011;6321;53.798;10.382;2023-06-14T08:24:03;7.43;;;3.70;;
12511;SDS011;6321;53.798;10.382;2023-06-14T08:26:29;6.97;;;3.53;;
12511;SDS011;6321;53.798;10.382;2023-06-14T08:28:56;5.53;;;3.53;;
12511;SDS011;6321;53.798;10.382;2023-06-14T08:31:22;4.13;;;3.43;;
12511;SDS011;6321;53.798;10.382;2023-06-14T08:33:49;4.90;;;3.50;;
12511;SDS011;6321;53.798;10.382;2023-06-14T08:36:15;8.67;;;3.90;;
12511;SDS011;6321;53.798;10.382;2023-06-14T08:38:41;4.23;;;3.77;;
12511;SDS011;6321;53.798;10.382;2023-06-14T08:41:08;7.60;;;4.10;;
12511;SDS011;6321;53.798;10.382;2023-06-14T08:43:38;9.13;;;3.97;;
12511;SDS011;6321;53.798;10.382;2023-06-14T08:46:04;10.67;;;3.60;;
12511;SDS011;6321;53.798;10.382;2023-06-14T08:48:35;8.63;;;3.67;;
12511;SDS011;6321;53.798;10.382;2023-06-14T08:51:01;4.40;;;3.47;;
12511;SDS011;6321;53.798;10.382;2023-06-14T08:53:30;8.50;;;4.77;;
12511;SDS011;6321;53.798;10.382;2023-06-14T08:55:57;4.70;;;3.93;;
12511;SDS011;6321;53.798;10.382;2023-06-14T08:58:26;5.07;;;3.50;;
12511;SDS011;6321;53.798;10.382;2023-06-14T09:00:54;6.37;;;4.03;;
12511;SDS011;6321;53.798;10.382;2023-06-14T09:03:20;5.70;;;3.63;;
12511;SDS011;6321;53.798;10.382;2023-06-14T09:05:48;4.27;;;3.87;;
12511;SDS011;6321;53.798;10.382;2023-06-14T09:08:15;4.43;;;3.80;;
12511;SDS011;6321;53.798;10.382;2023-06-14T09:10:41;5.33;;;3.87;;
12511;SDS011;6321;53.798;10.382;2023-06-14T09:13:07;6.13;;;3.97;;
12511;SDS011;6321;53.798;10.382;2023-06-14T09:15:33;6.33;;;3.70;;
12511;SDS011;6321;53.798;10.382;2023-06-14T09:18:00;5.77;;;3.73;;
12511;SDS011;6321;53.798;10.382;2023-06-14T09:20:28;5.40;;;3.57;;
12511;SDS011;6321;53.798;10.382;2023-06-14T09:22:55;6.40;;;4.00;;
12511;SDS011;6321;53.798;10.382;2023-06-14T09:25:21;6.70;;;3.97;;
12511;SDS011;6321;53.798;10.382;2023-06-14T09:27:47;5.47;;;4.20;;
12511;SDS011;6321;53.798;10.382;2023-06-14T09:30:14;5.60;;;3.60;;
12511;SDS011;6321;53.798;10.382;2023-06-14T09:32:40;6.83;;;3.90;;
12511;SDS011;6321;53.798;10.382;2023-06-14T09:35:06;4.90;;;4.13;;
12511;SDS011;6321;53.798;10.382;2023-06-14T09:37:32;5.93;;;3.87;;
12511;SDS011;6321;53.798;10.382;2023-06-14T09:39:58;4.10;;;3.80;;
12511;SDS011;6321;53.798;10.382;2023-06-14T09:42:25;4.63;;;3.37;;
12511;SDS011;6321;53.798;10.382;2023-06-14T09:44:52;6.03;;;3.70;;
12511;SDS011;6321;53.798;10.382;2023-06-14T09:47:19;7.77;;;3.70;;
12511;SDS011;6321;53.798;10.382;2023-06-14T09:49:45;8.17;;;4.00;;
12511;SDS011;6321;53.798;10.382;2023-06-14T09:52:14;6.07;;;3.40;;
12511;SDS011;6321;53.798;10.382;2023-06-14T09:54:40;7.00;;;3.80;;
12511;SDS011;6321;53.798;10.382;2023-06-14T09:57:08;6.17;;;3.83;;
12511;SDS011;6321;53.798;10.382;2023-06-14T09:59:35;5.53;;;3.77;;
12511;SDS011;6321;53.798;10.382;2023-06-14T10:04:29;5.33;;;3.50;;
12511;SDS011;6321;53.798;10.382;2023-06-14T10:06:55;5.97;;;3.40;;
12511;SDS011;6321;53.798;10.382;2023-06-14T10:09:22;5.47;;;3.57;;
12511;SDS011;6321;53.798;10.382;2023-06-14T10:11:48;6.67;;;3.73;;
12511;SDS011;6321;53.798;10.382;2023-06-14T10:14:14;5.10;;;3.30;;
12511;SDS011;6321;53.798;10.382;2023-06-14T10:17:01;6.10;;;3.63;;
12511;SDS011;6321;53.798;10.382;2023-06-14T10:19:34;6.10;;;3.70;;
12511;SDS011;6321;53.798;10.382;2023-06-14T10:24:58;3.60;;;3.30;;
12511;SDS011;6321;53.798;10.382;2023-06-14T10:27:26;3.87;;;3.53;;
12511;SDS011;6321;53.798;10.382;2023-06-14T10:30:01;6.07;;;3.90;;
12511;SDS011;6321;53.798;10.382;2023-06-14T10:32:28;6.50;;;3.73;;
12511;SDS011;6321;53.798;10.382;2023-06-14T10:35:00;5.30;;;3.40;;
12511;SDS011;6321;53.798;10.382;2023-06-14T10:37:27;6.47;;;3.80;;
12511;SDS011;6321;53.798;10.382;2023-06-14T10:39:53;5.43;;;3.53;;
12511;SDS011;6321;53.798;10.382;2023-06-14T10:42:19;8.03;;;3.57;;
12511;SDS011;6321;53.798;10.382;2023-06-14T10:44:54;4.00;;;3.60;;
12511;SDS011;6321;53.798;10.382;2023-06-14T10:49:50;5.40;;;3.63;;
12511;SDS011;6321;53.798;10.382;2023-06-14T10:52:17;7.13;;;3.50;;
12511;SDS011;6321;53.798;10.382;2023-06-14T10:57:29;4.97;;;2.97;;
12511;SDS011;6321;53.798;10.382;2023-06-14T10:59:57;5.33;;;3.90;;
12511;SDS011;6321;53.798;10.382;2023-06-14T11:05:03;4.73;;;3.73;;
12511;SDS011;6321;53.798;10.382;2023-06-14T11:10:10;9.57;;;3.70;;
12511;SDS011;6321;53.798;10.382;2023-06-14T11:12:39;7.63;;;3.50;;
12511;SDS011;6321;53.798;10.382;2023-06-14T11:15:07;3.50;;;3.20;;
12511;SDS011;6321;53.798;10.382;2023-06-14T11:17:33;5.27;;;3.50;;
12511;SDS011;6321;53.798;10.382;2023-06-14T11:20:10;6.13;;;3.90;;
12511;SDS011;6321;53.798;10.382;2023-06-14T11:22:40;6.30;;;3.70;;
12511;SDS011;6321;53.798;10.382;2023-06-14T11:25:08;8.90;;;3.27;;
12511;SDS011;6321;53.798;10.382;2023-06-14T11:27:34;9.70;;;3.80;;
12511;SDS011;6321;53.798;10.382;2023-06-14T11:30:00;7.67;;;3.57;;
12511;SDS011;6321;53.798;10.382;2023-06-14T11:32:26;6.53;;;4.10;;
12511;SDS011;6321;53.798;10.382;2023-06-14T11:34:52;5.50;;;3.50;;
12511;SDS011;6321;53.798;10.382;2023-06-14T11:37:18;4.73;;;3.70;;
12511;SDS011;6321;53.798;10.382;2023-06-14T11:39:44;5.83;;;3.90;;
12511;SDS011;6321;53.798;10.382;2023-06-14T11:42:16;4.60;;;3.10;;
12511;SDS011;6321;53.798;10.382;2023-06-14T11:44:45;7.33;;;3.90;;
12511;SDS011;6321;53.798;10.382;2023-06-14T11:47:12;4.17;;;3.87;;
12511;SDS011;6321;53.798;10.382;2023-06-14T11:49:38;4.77;;;3.90;;
12511;SDS011;6321;53.798;10.382;2023-06-14T11:52:04;10.27;;;4.07;;
12511;SDS011;6321;53.798;10.382;2023-06-14T11:54:31;5.50;;;3.37;;
12511;SDS011;6321;53.798;10.382;2023-06-14T11:56:58;4.43;;;3.97;;
12511;SDS011;6321;53.798;10.382;2023-06-14T11:59:24;6.27;;;3.70;;
12511;SDS011;6321;53.798;10.382;2023-06-14T12:01:50;4.57;;;3.37;;
12511;SDS011;6321;53.798;10.382;2023-06-14T12:04:24;5.90;;;3.30;;
12511;SDS011;6321;53.798;10.382;2023-06-14T12:06:52;3.77;;;3.30;;
12511;SDS011;6321;53.798;10.382;2023-06-14T12:09:20;3.93;;;3.20;;
12511;SDS011;6321;53.798;10.382;2023-06-14T12:11:51;3.70;;;3.30;;
12511;SDS011;6321;53.798;10.382;2023-06-14T12:14:29;5.63;;;3.43;;
12511;SDS011;6321;53.798;10.382;2023-06-14T12:17:03;5.07;;;3.20;;
12511;SDS011;6321;53.798;10.382;2023-06-14T12:19:29;4.97;;;3.23;;
12511;SDS011;6321;53.798;10.382;2023-06-14T12:21:56;18.00;;;4.67;;
12511;SDS011;6321;53.798;10.382;2023-06-14T12:24:27;5.93;;;3.90;;
12511;SDS011;6321;53.798;10.382;2023-06-14T12:26:54;4.53;;;2.97;;
12511;SDS011;6321;53.798;10.382;2023-06-14T12:29:20;3.00;;;2.80;;
12511;SDS011;6321;53.798;10.382;2023-06-14T12:31:46;7.80;;;3.30;;
12511;SDS011;6321;53.798;10.382;2023-06-14T12:34:12;6.53;;;3.57;;
12511;SDS011;6321;53.798;10.382;2023-06-14T12:36:38;7.33;;;3.30;;
12511;SDS011;6321;53.798;10.382;2023-06-14T12:39:09;3.23;;;2.93;;
12511;SDS011;6321;53.798;10.382;2023-06-14T12:41:35;6.00;;;3.43;;
12511;SDS011;6321;53.798;10.382;2023-06-14T12:44:01;6.13;;;2.90;;
12511;SDS011;6321;53.798;10.382;2023-06-14T12:46:30;3.57;;;3.23;;
12511;SDS011;6321;53.798;10.382;2023-06-14T12:48:56;7.37;;;3.23;;
12511;SDS011;6321;53.798;10.382;2023-06-14T12:51:22;3.30;;;2.97;;
12511;SDS011;6321;53.798;10.382;2023-06-14T12:53:48;4.63;;;3.37;;
12511;SDS011;6321;53.798;10.382;2023-06-14T12:56:14;5.03;;;3.47;;
12511;SDS011;6321;53.798;10.382;2023-06-14T12:58:41;5.73;;;3.57;;
12511;SDS011;6321;53.798;10.382;2023-06-14T13:01:07;5.03;;;3.37;;
12511;SDS011;6321;53.798;10.382;2023-06-14T13:03:33;5.33;;;3.60;;
12511;SDS011;6321;53.798;10.382;2023-06-14T13:05:59;3.30;;;3.00;;
12511;SDS011;6321;53.798;10.382;2023-06-14T13:08:26;2.93;;;2.60;;
12511;SDS011;6321;53.798;10.382;2023-06-14T13:10:52;6.67;;;3.40;;
12511;SDS011;6321;53.798;10.382;2023-06-14T13:13:18;8.23;;;3.53;;
12511;SDS011;6321;53.798;10.382;2023-06-14T13:15:44;4.03;;;3.30;;
12511;SDS011;6321;53.798;10.382;2023-06-14T13:18:11;5.57;;;3.03;;
12511;SDS011;6321;53.798;10.382;2023-06-14T13:20:38;3.90;;;3.47;;
12511;SDS011;6321;53.798;10.382;2023-06-14T13:23:04;5.67;;;3.50;;
12511;SDS011;6321;53.798;10.382;2023-06-14T13:25:32;9.00;;;3.57;;
12511;SDS011;6321;53.798;10.382;2023-06-14T13:27:58;8.03;;;3.53;;
12511;SDS011;6321;53.798;10.382;2023-06-14T13:30:24;4.43;;;3.30;;
12511;SDS011;6321;53.798;10.382;2023-06-14T13:32:50;4.77;;;3.30;;
12511;SDS011;6321;53.798;10.382;2023-06-14T13:35:17;8.00;;;3.80;;
12511;SDS011;6321;53.798;10.382;2023-06-14T13:37:43;5.00;;;3.50;;
12511;SDS011;6321;53.798;10.382;2023-06-14T13:40:09;4.83;;;3.27;;
12511;SDS011;6321;53.798;10.382;2023-06-14T13:42:35;4.33;;;3.83;;
12511;SDS011;6321;53.798;10.382;2023-06-14T13:45:02;5.30;;;3.50;;
12511;SDS011;6321;53.798;10.382;2023-06-14T13:47:28;6.87;;;3.47;;
12511;SDS011;6321;53.798;10.382;2023-06-14T13:49:54;4.30;;;3.20;;
12511;SDS011;6321;53.798;10.382;2023-06-14T13:52:20;7.83;;;3.70;;
12511;SDS011;6321;53.798;10.382;2023-06-14T13:54:46;9.47;;;3.70;;
12511;SDS011;6321;53.798;10.382;2023-06-14T13:57:12;4.27;;;3.10;;
12511;SDS011;6321;53.798;10.382;2023-06-14T13:59:39;3.47;;;3.00;;
12511;SDS011;6321;53.798;10.382;2023-06-14T14:02:05;8.33;;;3.37;;
12511;SDS011;6321;53.798;10.382;2023-06-14T14:04:31;4.23;;;3.43;;
12511;SDS011;6321;53.798;10.382;2023-06-14T14:06:57;3.83;;;3.47;;
12511;SDS011;6321;53.798;10.382;2023-06-14T14:09:23;5.93;;;3.30;;
12511;SDS011;6321;53.798;10.382;2023-06-14T14:11:49;7.07;;;3.07;;
12511;SDS011;6321;53.798;10.382;2023-06-14T14:14:15;3.73;;;3.13;;
12511;SDS011;6321;53.798;10.382;2023-06-14T14:16:41;6.67;;;3.23;;
12511;SDS011;6321;53.798;10.382;2023-06-14T14:19:07;3.27;;;2.67;;
12511;SDS011;6321;53.798;10.382;2023-06-14T14:21:33;4.00;;;3.60;;
12511;SDS011;6321;53.798;10.382;2023-06-14T14:24:00;4.63;;;3.37;;
12511;SDS011;6321;53.798;10.382;2023-06-14T14:26:26;4.17;;;3.10;;
12511;SDS011;6321;53.798;10.382;2023-06-14T14:28:52;4.37;;;3.20;;
12511;SDS011;6321;53.798;10.382;2023-06-14T14:31:18;4.90;;;2.80;;
12511;SDS011;6321;53.798;10.382;2023-06-14T14:33:44;3.93;;;2.80;;
12511;SDS011;6321;53.798;10.382;2023-06-14T14:36:10;4.03;;;3.20;;
12511;SDS011;6321;53.798;10.382;2023-06-14T14:38:36;5.37;;;3.73;;
12511;SDS011;6321;53.798;10.382;2023-06-14T14:41:02;5.13;;;3.60;;
12511;SDS011;6321;53.798;10.382;2023-06-14T14:43:28;9.83;;;3.40;;
12511;SDS011;6321;53.798;10.382;2023-06-14T14:45:56;5.87;;;3.70;;
12511;SDS011;6321;53.798;10.382;2023-06-14T14:48:22;5.97;;;3.20;;
12511;SDS011;6321;53.798;10.382;2023-06-14T14:50:48;3.97;;;2.73;;
12511;SDS011;6321;53.798;10.382;2023-06-14T14:53:14;7.50;;;2.90;;
12511;SDS011;6321;53.798;10.382;2023-06-14T14:55:43;3.90;;;3.40;;
12511;SDS011;6321;53.798;10.382;2023-06-14T14:58:09;4.60;;;3.10;;
12511;SDS011;6321;53.798;10.382;2023-06-14T15:00:35;3.80;;;2.77;;